createdAt,value
2019-01-30T00:00:52.028Z,19.23
2019-01-30T00:03:55.623Z,20.10
2019-01-30T00:07:01.178Z,19.40
2019-01-30T00:10:05.315Z,19.32
2019-01-30T00:13:10.863Z,19.87
2019-01-30T00:16:14.358Z,19.05
2019-01-30T00:19:17.849Z,19.32
2019-01-30T00:22:21.339Z,18.62
2019-01-30T00:25:24.858Z,19.17
2019-01-30T00:28:28.318Z,19.17
2019-01-30T00:31:31.860Z,19.42
2019-01-30T00:34:35.361Z,18.48
2019-01-30T00:37:38.844Z,18.77
2019-01-30T00:40:42.375Z,18.92
2019-01-30T00:43:45.873Z,19.50
2019-01-30T00:46:49.377Z,18.62
2019-01-30T00:49:52.867Z,18.87
2019-01-30T00:52:56.275Z,18.82
2019-01-30T00:55:59.857Z,18.77
2019-01-30T00:59:03.288Z,18.95
2019-01-30T01:02:06.759Z,19.07
2019-01-30T01:05:10.420Z,20.08
2019-01-30T01:08:13.889Z,18.67
2019-01-30T01:11:17.366Z,22.25
2019-01-30T01:14:20.876Z,19.73
2019-01-30T01:17:24.369Z,18.85
2019-01-30T01:20:27.859Z,19.37
2019-01-30T01:23:31.373Z,20.05
2019-01-30T01:26:34.789Z,19.42
2019-01-30T01:29:38.384Z,18.65
2019-01-30T01:32:41.875Z,19.05
2019-01-30T01:35:45.387Z,19.55
2019-01-30T01:38:49.895Z,19.50
2019-01-30T01:41:53.333Z,19.73
2019-01-30T01:44:56.946Z,18.65
2019-01-30T01:48:00.398Z,19.27
2019-01-30T01:51:04.917Z,19.55
2019-01-30T01:54:08.436Z,19.65
2019-01-30T01:57:11.867Z,19.90
2019-01-30T02:00:17.275Z,20.57
2019-01-30T02:03:22.994Z,19.23
2019-01-30T02:06:26.522Z,20.45
2019-01-30T02:09:30.025Z,20.60
2019-01-30T02:12:33.526Z,19.30
2019-01-30T02:15:37.025Z,19.42
2019-01-30T02:18:40.527Z,19.45
2019-01-30T02:21:44.044Z,20.75
2019-01-30T02:24:47.532Z,20.35
2019-01-30T02:27:51.021Z,21.17
2019-01-30T02:30:54.444Z,19.37
2019-01-30T02:33:57.944Z,20.00
2019-01-30T02:37:01.478Z,20.52
2019-01-30T02:40:06.368Z,19.55
2019-01-30T02:43:09.961Z,19.85
2019-01-30T02:46:14.495Z,19.67
2019-01-30T02:49:17.994Z,20.40
2019-01-30T02:52:21.510Z,20.92
2019-01-30T02:55:24.940Z,20.00
2019-01-30T02:58:28.500Z,19.85
2019-01-30T03:01:33.647Z,19.42
2019-01-30T03:04:37.148Z,19.80
2019-01-30T03:07:40.642Z,19.82
2019-01-30T03:10:44.146Z,19.98
2019-01-30T03:13:47.653Z,20.20
2019-01-30T03:16:51.148Z,20.12
2019-01-30T03:19:54.585Z,21.52
2019-01-30T03:22:58.043Z,20.68
2019-01-30T03:26:01.569Z,19.77
2019-01-30T03:29:05.102Z,20.20
2019-01-30T03:32:08.597Z,20.30
2019-01-30T03:35:12.051Z,20.15
2019-01-30T03:38:15.480Z,19.67
2019-01-30T03:41:19.964Z,21.15
2019-01-30T03:44:23.385Z,19.90
2019-01-30T03:47:26.871Z,19.85
2019-01-30T03:50:30.305Z,19.77
2019-01-30T03:53:35.800Z,19.95
2019-01-30T03:56:39.343Z,19.75
2019-01-30T03:59:42.826Z,20.85
2019-01-30T04:02:46.354Z,20.25
2019-01-30T04:05:49.843Z,20.48
2019-01-30T04:08:53.322Z,20.72
2019-01-30T04:11:56.813Z,20.17
2019-01-30T04:15:00.320Z,19.95
2019-01-30T04:18:03.835Z,19.60
2019-01-30T04:21:08.344Z,20.70
2019-01-30T04:24:11.847Z,19.60
2019-01-30T04:27:15.351Z,20.05
2019-01-30T04:30:23.684Z,19.23
2019-01-30T04:33:27.175Z,20.15
2019-01-30T04:36:30.680Z,20.17
2019-01-30T04:39:34.167Z,20.23
2019-01-30T04:42:37.687Z,20.30
2019-01-30T04:45:41.105Z,20.68
2019-01-30T04:48:44.707Z,20.55
2019-01-30T04:51:49.140Z,20.52
2019-01-30T04:54:52.585Z,20.15
2019-01-30T04:57:58.206Z,21.82
2019-01-30T05:01:01.142Z,22.05
2019-01-30T05:04:04.834Z,21.20
2019-01-30T05:07:08.440Z,20.60
2019-01-30T05:10:12.977Z,21.07
2019-01-30T05:13:16.465Z,20.25
2019-01-30T05:16:19.901Z,20.95
2019-01-30T05:19:23.353Z,21.55
2019-01-30T05:22:26.952Z,20.82
2019-01-30T05:25:31.054Z,20.92
2019-01-30T05:28:34.609Z,20.60
2019-01-30T05:31:39.105Z,21.12
2019-01-30T05:34:43.627Z,20.95
2019-01-30T05:37:51.256Z,21.50
2019-01-30T05:40:53.503Z,21.73
2019-01-30T05:43:57.059Z,20.32
2019-01-30T05:47:00.552Z,19.82
2019-01-30T05:50:04.413Z,21.17
2019-01-30T05:53:07.900Z,20.35
2019-01-30T05:56:11.425Z,20.75
2019-01-30T05:59:15.930Z,20.15
2019-01-30T06:02:19.460Z,20.77
2019-01-30T06:05:22.937Z,20.40
2019-01-30T06:08:26.441Z,20.15
2019-01-30T06:11:30.966Z,20.05
2019-01-30T06:14:34.471Z,19.87
2019-01-30T06:17:38.993Z,20.77
2019-01-30T06:20:42.479Z,20.62
2019-01-30T06:23:46.902Z,20.50
2019-01-30T06:26:50.611Z,21.15
2019-01-30T06:29:54.020Z,19.85
2019-01-30T06:32:59.585Z,22.10
2019-01-30T06:36:03.219Z,21.85
2019-01-30T06:39:07.912Z,21.62
2019-01-30T06:42:11.357Z,20.40
2019-01-30T06:45:14.800Z,19.45
2019-01-30T06:48:18.313Z,20.32
2019-01-30T06:51:21.796Z,20.08
2019-01-30T06:54:25.303Z,21.52
2019-01-30T06:57:28.853Z,21.35
2019-01-30T07:00:32.300Z,21.35
2019-01-30T07:03:35.811Z,22.00
2019-01-30T07:06:39.240Z,21.45
2019-01-30T07:09:42.845Z,20.97
2019-01-30T07:12:46.308Z,20.48
2019-01-30T07:15:49.825Z,21.25
2019-01-30T07:18:53.267Z,24.25
2019-01-30T07:21:56.721Z,23.32
2019-01-30T07:24:59.271Z,23.45
2019-01-30T07:28:02.792Z,24.37
2019-01-30T07:31:06.281Z,20.80
2019-01-30T07:34:09.704Z,23.00
2019-01-30T07:37:13.201Z,21.55
2019-01-30T07:40:16.719Z,25.32
2019-01-30T07:43:20.135Z,22.52
2019-01-30T07:46:23.572Z,24.40
2019-01-30T07:49:27.098Z,22.32
2019-01-30T07:52:32.807Z,23.15
2019-01-30T07:55:36.530Z,20.23
2019-01-30T07:58:40.064Z,21.60
2019-01-30T08:01:43.570Z,19.48
2019-01-30T08:04:47.268Z,20.15
2019-01-30T08:07:52.879Z,20.92
2019-01-30T08:10:56.407Z,20.80
2019-01-30T08:14:01.835Z,19.67
2019-01-30T08:17:05.150Z,20.37
2019-01-30T08:20:10.766Z,20.70
2019-01-30T08:23:14.515Z,20.23
2019-01-30T08:26:18.145Z,19.55
2019-01-30T08:29:21.603Z,20.05
2019-01-30T08:32:25.485Z,19.50
2019-01-30T08:35:30.117Z,20.45
2019-01-30T08:38:33.556Z,20.08
2019-01-30T08:41:37.041Z,20.08
2019-01-30T08:44:46.864Z,19.10
2019-01-30T08:47:45.635Z,19.02
2019-01-30T08:50:49.075Z,20.40
2019-01-30T08:53:52.593Z,19.62
2019-01-30T08:56:56.097Z,20.08
2019-01-30T08:59:59.592Z,18.57
2019-01-30T09:03:14.167Z,19.73
2019-01-30T09:06:09.357Z,18.77
2019-01-30T09:09:12.847Z,18.80
2019-01-30T09:12:16.367Z,18.48
2019-01-30T09:15:21.075Z,18.23
2019-01-30T09:18:24.519Z,18.25
2019-01-30T09:21:28.000Z,19.12
2019-01-30T09:24:31.411Z,17.65
2019-01-30T09:27:34.940Z,16.95
2019-01-30T09:30:39.074Z,18.40
2019-01-30T09:33:42.504Z,19.77
2019-01-30T09:36:47.027Z,18.12
2019-01-30T09:39:50.467Z,19.45
2019-01-30T09:42:54.074Z,17.90
2019-01-30T09:45:57.488Z,19.75
2019-01-30T09:49:01.185Z,18.62
2019-01-30T09:52:04.733Z,18.23
2019-01-30T09:55:09.216Z,18.10
2019-01-30T09:58:12.680Z,20.68
2019-01-30T10:01:16.233Z,18.90
2019-01-30T10:04:19.701Z,19.37
2019-01-30T10:07:23.171Z,19.25
2019-01-30T10:10:31.573Z,19.98
2019-01-30T10:13:37.373Z,19.27
2019-01-30T10:16:40.680Z,18.87
2019-01-30T10:19:44.129Z,18.48
2019-01-30T10:22:47.720Z,17.90
2019-01-30T10:25:51.222Z,19.92
2019-01-30T10:28:54.723Z,18.20
2019-01-30T10:31:58.204Z,18.65
2019-01-30T10:35:01.732Z,18.32
2019-01-30T10:38:05.612Z,19.70
2019-01-30T10:41:09.049Z,17.12
2019-01-30T10:44:12.553Z,19.30
2019-01-30T10:47:16.449Z,17.20
2019-01-30T10:50:21.864Z,17.20
2019-01-30T10:53:25.305Z,18.12
2019-01-30T10:56:28.907Z,17.70
2019-01-30T10:59:32.392Z,18.62
2019-01-30T11:02:35.905Z,18.48
2019-01-30T11:05:39.419Z,17.85
2019-01-30T11:08:42.897Z,19.15
2019-01-30T11:11:46.499Z,19.27
2019-01-30T11:14:53.200Z,19.92
2019-01-30T11:17:56.868Z,19.40
2019-01-30T11:21:00.406Z,20.02
2019-01-30T11:24:04.001Z,19.35
2019-01-30T11:27:08.438Z,17.90
2019-01-30T11:30:12.239Z,19.35
2019-01-30T11:33:17.029Z,18.80
2019-01-30T11:36:20.547Z,20.48
2019-01-30T11:39:24.136Z,21.23
2019-01-30T11:42:28.027Z,18.48
2019-01-30T11:45:36.649Z,18.35
2019-01-30T11:48:40.259Z,18.35
2019-01-30T11:51:43.818Z,20.20
2019-01-30T11:54:47.303Z,19.95
2019-01-30T11:57:50.810Z,19.57
2019-01-30T12:01:03.568Z,18.60
2019-01-30T12:04:17.437Z,17.80
2019-01-30T12:07:12.357Z,18.77
2019-01-30T12:10:15.867Z,17.42
2019-01-30T12:13:19.579Z,17.10
2019-01-30T12:16:24.091Z,16.40
2019-01-30T12:19:29.672Z,18.90
2019-01-30T12:22:35.192Z,18.70
2019-01-30T12:25:38.747Z,19.57
2019-01-30T12:28:42.216Z,18.05
2019-01-30T12:31:46.031Z,19.25
2019-01-30T12:34:49.405Z,17.12
2019-01-30T12:37:53.925Z,18.07
2019-01-30T12:40:59.507Z,18.50
2019-01-30T12:44:03.005Z,18.48
2019-01-30T12:47:06.478Z,17.90
2019-01-30T12:50:10.031Z,19.10
2019-01-30T12:53:13.467Z,18.50
2019-01-30T12:56:17.002Z,17.95
2019-01-30T12:59:20.492Z,17.65
2019-01-30T13:02:24.007Z,18.07
2019-01-30T13:05:27.812Z,18.17
2019-01-30T13:08:31.395Z,17.80
2019-01-30T13:11:34.901Z,18.82
2019-01-30T13:14:38.414Z,17.75
2019-01-30T13:17:41.912Z,17.87
2019-01-30T13:20:45.414Z,18.92
2019-01-30T13:23:48.905Z,19.00
2019-01-30T13:26:53.442Z,17.77
2019-01-30T13:29:56.933Z,17.40
2019-01-30T13:33:00.432Z,18.12
2019-01-30T13:36:03.950Z,21.35
2019-01-30T13:39:09.663Z,18.90
2019-01-30T13:42:13.218Z,18.15
2019-01-30T13:45:16.685Z,19.32
2019-01-30T13:48:21.137Z,17.95
2019-01-30T13:51:25.753Z,18.98
2019-01-30T13:54:29.302Z,18.52
2019-01-30T13:57:32.769Z,19.92
2019-01-30T14:00:37.025Z,19.10
2019-01-30T14:03:40.673Z,19.62
2019-01-30T14:06:44.251Z,17.95
2019-01-30T14:09:47.769Z,18.55
2019-01-30T14:12:51.581Z,19.05
2019-01-30T14:15:55.278Z,20.43
2019-01-30T14:18:58.923Z,19.30
2019-01-30T14:22:02.408Z,19.82
2019-01-30T14:25:06.613Z,19.00
2019-01-30T14:28:10.207Z,18.65
2019-01-30T14:31:13.847Z,18.32
2019-01-30T14:34:17.415Z,18.77
2019-01-30T14:37:20.974Z,20.12
2019-01-30T14:40:24.460Z,18.90
2019-01-30T14:43:27.954Z,18.85
2019-01-30T14:46:31.555Z,17.80
2019-01-30T14:49:35.123Z,18.75
2019-01-30T14:52:38.656Z,19.40
2019-01-30T14:55:42.138Z,18.60
2019-01-30T14:58:45.652Z,18.62
2019-01-30T15:01:49.482Z,18.80
2019-01-30T15:04:53.884Z,18.85
2019-01-30T15:07:59.448Z,18.30
2019-01-30T15:11:03.002Z,19.10
2019-01-30T15:14:07.884Z,18.12
2019-01-30T15:17:11.364Z,19.05
2019-01-30T15:20:28.361Z,18.57
2019-01-30T15:23:31.902Z,18.37
2019-01-30T15:26:35.413Z,19.32
2019-01-30T15:29:38.924Z,19.37
2019-01-30T15:32:42.398Z,18.62
2019-01-30T15:35:46.928Z,19.42
2019-01-30T15:38:50.400Z,18.87
2019-01-30T15:41:53.953Z,19.23
2019-01-30T15:44:57.394Z,19.90
2019-01-30T15:48:00.898Z,19.17
2019-01-30T15:51:04.377Z,19.62
2019-01-30T15:54:07.915Z,18.85
2019-01-30T15:57:12.407Z,4.90
2019-01-30T16:00:22.757Z,5.55
2019-01-30T16:03:27.283Z,5.17
2019-01-30T16:06:30.689Z,6.47
2019-01-30T16:09:34.185Z,3.45
2019-01-30T16:12:37.700Z,3.98
2019-01-30T16:15:48.283Z,4.00
2019-01-30T16:18:51.869Z,7.75
2019-01-30T16:21:55.373Z,5.83
2019-01-30T16:25:08.726Z,6.45
2019-01-30T16:28:04.614Z,5.03
2019-01-30T16:31:08.145Z,7.15
2019-01-30T16:34:11.629Z,3.62
2019-01-30T16:37:15.131Z,4.28
2019-01-30T16:40:18.653Z,4.55
2019-01-30T16:43:22.144Z,4.20
2019-01-30T16:46:26.666Z,8.15
2019-01-30T16:49:31.178Z,4.90
2019-01-30T16:52:35.715Z,7.87
2019-01-30T16:55:39.210Z,4.87
2019-01-30T16:58:43.777Z,5.80
2019-01-30T17:01:47.245Z,5.85
2019-01-30T17:04:50.670Z,5.08
2019-01-30T17:07:54.138Z,2.87
2019-01-30T17:10:57.850Z,3.90
2019-01-30T17:14:01.517Z,3.47
2019-01-30T17:17:04.934Z,3.62
2019-01-30T17:20:15.541Z,6.85
2019-01-30T17:23:19.075Z,4.67
2019-01-30T17:26:22.590Z,4.20
2019-01-30T17:29:26.036Z,6.33
2019-01-30T17:32:29.685Z,3.77
2019-01-30T17:35:33.135Z,3.20
2019-01-30T17:38:36.636Z,4.42
2019-01-30T17:41:40.097Z,3.42
2019-01-30T17:44:43.591Z,2.52
2019-01-30T17:47:48.160Z,3.75
2019-01-30T17:50:51.560Z,2.87
2019-01-30T17:53:55.164Z,2.62
2019-01-30T17:56:58.582Z,2.33
2019-01-30T18:00:02.137Z,2.35
2019-01-30T18:03:05.558Z,2.83
2019-01-30T18:06:09.173Z,2.90
2019-01-30T18:09:12.587Z,2.60
2019-01-30T18:12:16.076Z,3.42
2019-01-30T18:15:19.682Z,2.95
2019-01-30T18:18:23.112Z,4.33
2019-01-30T18:21:26.566Z,2.75
2019-01-30T18:24:30.066Z,2.90
2019-01-30T18:27:33.683Z,2.65
2019-01-30T18:30:37.110Z,2.52
2019-01-30T18:33:40.587Z,3.83
2019-01-30T18:36:44.185Z,3.25
2019-01-30T18:39:49.660Z,3.75
2019-01-30T18:42:52.802Z,2.75
2019-01-30T18:45:56.315Z,2.60
2019-01-30T18:48:59.830Z,3.02
2019-01-30T18:52:03.336Z,3.25
2019-01-30T18:55:06.850Z,3.45
2019-01-30T18:58:10.332Z,3.45
2019-01-30T19:01:13.822Z,2.60
2019-01-30T19:04:17.339Z,2.98
2019-01-30T19:07:20.829Z,3.10
2019-01-30T19:10:24.446Z,3.00
2019-01-30T19:13:27.985Z,2.50
2019-01-30T19:16:31.459Z,2.87
2019-01-30T19:19:34.936Z,3.37
2019-01-30T19:22:38.551Z,3.10
2019-01-30T19:25:41.958Z,2.85
2019-01-30T19:28:45.449Z,3.12
2019-01-30T19:31:49.103Z,2.50
2019-01-30T19:34:52.563Z,2.65
2019-01-30T19:37:56.042Z,2.90
2019-01-30T19:40:59.582Z,2.87
2019-01-30T19:44:03.096Z,2.65
2019-01-30T19:47:06.575Z,2.95
2019-01-30T19:50:13.452Z,2.72
2019-01-30T19:53:16.915Z,2.85
2019-01-30T19:56:20.435Z,3.60
2019-01-30T19:59:24.027Z,3.80
2019-01-30T20:02:27.559Z,2.92
2019-01-30T20:05:31.072Z,4.42
2019-01-30T20:08:34.565Z,3.15
2019-01-30T20:11:37.975Z,2.67
2019-01-30T20:14:41.465Z,3.10
2019-01-30T20:17:44.942Z,3.47
2019-01-30T20:20:48.560Z,4.20
2019-01-30T20:23:53.082Z,2.60
2019-01-30T20:26:56.572Z,3.30
2019-01-30T20:29:59.987Z,4.05
2019-01-30T20:33:03.555Z,3.02
2019-01-30T20:36:07.070Z,3.95
2019-01-30T20:39:10.604Z,4.35
2019-01-30T20:42:14.074Z,3.55
2019-01-30T20:45:19.773Z,2.98
2019-01-30T20:48:23.230Z,4.80
2019-01-30T20:51:26.818Z,3.65
2019-01-30T20:54:30.236Z,2.90
2019-01-30T20:57:33.835Z,3.50
2019-01-30T21:00:38.367Z,3.05
2019-01-30T21:03:41.850Z,3.37
2019-01-30T21:06:45.374Z,2.98
2019-01-30T21:09:48.789Z,4.15
2019-01-30T21:12:52.373Z,3.30
2019-01-30T21:15:55.896Z,3.08
2019-01-30T21:18:59.365Z,2.98
2019-01-30T21:22:02.893Z,2.95
2019-01-30T21:25:09.559Z,2.87
2019-01-30T21:28:13.082Z,2.95
2019-01-30T21:31:16.534Z,3.02
2019-01-30T21:34:20.147Z,3.83
2019-01-30T21:37:23.641Z,3.62
2019-01-30T21:40:27.174Z,3.20
2019-01-30T21:43:33.983Z,3.37
2019-01-30T21:46:37.436Z,3.10
2019-01-30T21:49:40.924Z,3.27
2019-01-30T21:52:44.390Z,3.40
2019-01-30T21:55:47.862Z,3.22
2019-01-30T21:58:51.445Z,3.37
2019-01-30T22:02:07.716Z,3.40
2019-01-30T22:05:02.338Z,4.42
2019-01-30T22:08:06.864Z,3.22
2019-01-30T22:11:10.288Z,4.87
2019-01-30T22:14:13.767Z,3.67
2019-01-30T22:17:17.362Z,4.40
2019-01-30T22:20:22.696Z,3.27
2019-01-30T22:23:26.118Z,3.83
2019-01-30T22:26:29.601Z,3.90
2019-01-30T22:29:33.212Z,3.22
2019-01-30T22:32:36.627Z,3.47
2019-01-30T22:35:40.093Z,3.33
2019-01-30T22:38:44.534Z,4.00
2019-01-30T22:41:48.013Z,3.08
2019-01-30T22:44:51.521Z,4.10
2019-01-30T22:47:55.023Z,3.50
2019-01-30T22:50:58.450Z,3.77
2019-01-30T22:54:01.932Z,3.87
2019-01-30T22:57:07.389Z,3.50
2019-01-30T23:00:19.385Z,3.50
2019-01-30T23:03:37.754Z,3.77
2019-01-30T23:07:19.846Z,3.20
2019-01-30T23:11:12.905Z,3.55
2019-01-30T23:14:31.552Z,3.80
2019-01-30T23:18:06.179Z,3.80
2019-01-30T23:21:14.588Z,3.50
2019-01-30T23:25:08.165Z,3.72
2019-01-30T23:28:54.888Z,3.20
2019-01-30T23:32:29.421Z,3.10
2019-01-30T23:36:14.991Z,3.75
2019-01-30T23:39:54.654Z,3.95
2019-01-30T23:43:35.695Z,3.75
2019-01-30T23:47:42.822Z,4.05
2019-01-30T23:51:06.795Z,3.33
2019-01-30T23:54:42.927Z,3.95
2019-01-30T23:58:37.914Z,4.35
